createdAt,value
2019-06-08T00:00:54.302Z,960.58
2019-06-08T00:01:54.305Z,960.62
2019-06-08T00:02:54.285Z,960.65
2019-06-08T00:03:54.282Z,960.59
2019-06-08T00:04:54.302Z,960.63
2019-06-08T00:05:54.260Z,960.59
2019-06-08T00:06:54.235Z,960.55
2019-06-08T00:07:54.222Z,960.52
2019-06-08T00:08:54.224Z,960.49
2019-06-08T00:09:54.212Z,960.53
2019-06-08T00:10:54.192Z,960.61
2019-06-08T00:11:54.171Z,960.56
2019-06-08T00:12:54.152Z,960.67
2019-06-08T00:13:54.242Z,960.57
2019-06-08T00:14:54.188Z,960.64
2019-06-08T00:15:54.170Z,960.63
2019-06-08T00:16:54.120Z,960.68
2019-06-08T00:17:54.122Z,960.64
2019-06-08T00:18:54.119Z,960.78
2019-06-08T00:19:54.115Z,960.94
2019-06-08T00:20:54.087Z,960.87
2019-06-08T00:21:54.063Z,960.95
2019-06-08T00:22:54.054Z,960.96
2019-06-08T00:23:54.065Z,961.07
2019-06-08T00:24:54.073Z,961.09
2019-06-08T00:25:54.012Z,961.11
2019-06-08T00:26:54.017Z,961.12
2019-06-08T00:27:54.022Z,961.15
2019-06-08T00:28:54.005Z,961.12
2019-06-08T00:29:54.002Z,961.12
2019-06-08T00:30:53.970Z,961.14
2019-06-08T00:31:53.980Z,961.13
2019-06-08T00:32:53.932Z,961.11
2019-06-08T00:33:53.940Z,961.11
2019-06-08T00:34:53.934Z,961.07
2019-06-08T00:35:54.003Z,961.10
2019-06-08T00:36:53.891Z,961.11
2019-06-08T00:37:53.912Z,961.22
2019-06-08T00:38:53.882Z,961.22
2019-06-08T00:39:53.889Z,961.23
2019-06-08T00:40:53.874Z,961.19
2019-06-08T00:41:53.843Z,961.25
2019-06-08T00:42:53.833Z,961.22
2019-06-08T00:43:53.845Z,961.23
2019-06-08T00:44:53.957Z,961.25
2019-06-08T00:45:53.834Z,961.38
2019-06-08T00:46:53.802Z,961.36
2019-06-08T00:47:53.811Z,961.31
2019-06-08T00:48:53.762Z,961.30
2019-06-08T00:49:53.753Z,961.32
2019-06-08T00:50:53.740Z,961.40
2019-06-08T00:51:53.735Z,961.34
2019-06-08T00:52:53.741Z,961.41
2019-06-08T00:53:53.847Z,961.38
2019-06-08T00:54:53.701Z,961.34
2019-06-08T00:55:53.693Z,961.32
2019-06-08T00:56:53.670Z,961.38
2019-06-08T00:57:53.798Z,961.37
2019-06-08T00:58:53.675Z,961.40
2019-06-08T00:59:53.645Z,961.46
2019-06-08T01:00:53.630Z,961.37
2019-06-08T01:01:53.611Z,961.40
2019-06-08T01:02:53.607Z,961.34
2019-06-08T01:03:53.616Z,961.38
2019-06-08T01:04:53.605Z,961.45
2019-06-08T01:05:53.586Z,961.45
2019-06-08T01:06:53.562Z,961.52
2019-06-08T01:07:53.553Z,961.63
2019-06-08T01:08:53.585Z,961.54
2019-06-08T01:09:53.550Z,961.49
2019-06-08T01:10:53.525Z,961.50
2019-06-08T01:11:53.506Z,961.50
2019-06-08T01:12:53.502Z,961.61
2019-06-08T01:13:53.543Z,961.50
2019-06-08T01:14:53.482Z,961.52
2019-06-08T01:15:53.494Z,961.54
2019-06-08T01:16:53.454Z,961.57
2019-06-08T01:18:02.840Z,961.61
2019-06-08T01:18:54.433Z,961.58
2019-06-08T01:19:53.424Z,961.59
2019-06-08T01:20:53.441Z,961.58
2019-06-08T01:21:53.399Z,961.59
2019-06-08T01:22:53.389Z,961.67
2019-06-08T01:23:53.371Z,961.64
2019-06-08T01:24:53.361Z,961.63
2019-06-08T01:25:53.364Z,961.69
2019-06-08T01:26:53.344Z,961.71
2019-06-08T01:27:53.333Z,961.66
2019-06-08T01:28:53.339Z,961.69
2019-06-08T01:29:53.313Z,961.79
2019-06-08T01:30:53.320Z,961.75
2019-06-08T01:31:53.282Z,961.78
2019-06-08T01:32:53.274Z,961.79
2019-06-08T01:33:53.262Z,961.75
2019-06-08T01:34:53.263Z,961.75
2019-06-08T01:35:53.252Z,961.77
2019-06-08T01:36:53.254Z,961.75
2019-06-08T01:37:53.238Z,961.75
2019-06-08T01:38:53.203Z,961.75
2019-06-08T01:39:53.193Z,961.72
2019-06-08T01:40:53.196Z,961.75
2019-06-08T01:41:53.237Z,961.75
2019-06-08T01:42:53.176Z,961.81
2019-06-08T01:43:53.154Z,961.87
2019-06-08T01:44:53.144Z,961.85
2019-06-08T01:45:53.153Z,961.96
2019-06-08T01:46:53.142Z,961.89
2019-06-08T01:47:53.110Z,961.83
2019-06-08T01:48:53.092Z,961.88
2019-06-08T01:49:53.099Z,961.87
2019-06-08T01:50:53.083Z,961.91
2019-06-08T01:51:53.120Z,961.97
2019-06-08T01:52:53.058Z,961.92
2019-06-08T01:53:53.044Z,961.83
2019-06-08T01:54:53.022Z,961.90
2019-06-08T01:55:53.013Z,961.80
2019-06-08T01:56:53.035Z,961.86
2019-06-08T01:57:53.006Z,961.87
2019-06-08T01:58:52.988Z,961.97
2019-06-08T01:59:52.978Z,961.98
2019-06-08T02:00:52.954Z,962.03
2019-06-08T02:01:52.973Z,962.02
2019-06-08T02:02:52.948Z,962.09
2019-06-08T02:03:52.957Z,962.12
2019-06-08T02:04:52.947Z,962.09
2019-06-08T02:05:52.904Z,962.14
2019-06-08T02:06:52.934Z,962.19
2019-06-08T02:07:52.881Z,962.19
2019-06-08T02:08:52.873Z,962.20
2019-06-08T02:09:52.902Z,962.20
2019-06-08T02:10:52.927Z,962.23
2019-06-08T02:11:52.883Z,962.23
2019-06-08T02:12:52.833Z,962.21
2019-06-08T02:13:52.861Z,962.29
2019-06-08T02:14:52.817Z,962.26
2019-06-08T02:15:52.797Z,962.32
2019-06-08T02:16:52.828Z,962.26
2019-06-08T02:17:52.782Z,962.36
2019-06-08T02:18:52.763Z,962.34
2019-06-08T02:19:52.791Z,962.37
2019-06-08T02:20:52.763Z,962.34
2019-06-08T02:21:52.764Z,962.26
2019-06-08T02:22:52.734Z,962.28
2019-06-08T02:23:52.755Z,962.27
2019-06-08T02:24:52.708Z,962.29
2019-06-08T02:25:52.694Z,962.34
2019-06-08T02:26:52.733Z,962.32
2019-06-08T02:27:52.701Z,962.36
2019-06-08T02:28:52.657Z,962.32
2019-06-08T02:29:52.682Z,962.36
2019-06-08T02:30:52.638Z,962.39
2019-06-08T02:31:52.650Z,962.34
2019-06-08T02:32:52.629Z,962.38
2019-06-08T02:33:52.604Z,962.40
2019-06-08T02:34:52.595Z,962.41
2019-06-08T02:35:52.607Z,962.44
2019-06-08T02:36:52.574Z,962.47
2019-06-08T02:37:52.574Z,962.40
2019-06-08T02:38:52.536Z,962.45
2019-06-08T02:39:52.527Z,962.49
2019-06-08T02:40:52.514Z,962.51
2019-06-08T02:41:52.516Z,962.53
2019-06-08T02:42:52.523Z,962.50
2019-06-08T02:43:52.485Z,962.57
2019-06-08T02:44:52.463Z,962.53
2019-06-08T02:45:52.477Z,962.50
2019-06-08T02:46:52.453Z,962.56
2019-06-08T02:47:52.466Z,962.59
2019-06-08T02:49:03.126Z,962.55
2019-06-08T02:49:53.417Z,962.46
2019-06-08T02:50:52.429Z,962.49
2019-06-08T02:51:52.395Z,962.50
2019-06-08T02:52:52.402Z,962.52
2019-06-08T02:53:52.370Z,962.51
2019-06-08T02:54:52.375Z,962.59
2019-06-08T02:55:52.349Z,962.53
2019-06-08T02:56:52.408Z,962.62
2019-06-08T02:57:52.345Z,962.65
2019-06-08T02:58:52.342Z,962.62
2019-06-08T02:59:52.332Z,962.62
2019-06-08T03:00:52.296Z,962.63
2019-06-08T03:01:52.291Z,962.66
2019-06-08T03:02:52.300Z,962.67
2019-06-08T03:03:52.254Z,962.66
2019-06-08T03:04:52.245Z,962.64
2019-06-08T03:05:52.244Z,962.63
2019-06-08T03:06:52.234Z,962.64
2019-06-08T03:07:52.234Z,962.69
2019-06-08T03:08:52.248Z,962.71
2019-06-08T03:09:52.201Z,962.65
2019-06-08T03:10:52.241Z,962.72
2019-06-08T03:11:52.214Z,962.74
2019-06-08T03:12:52.226Z,962.74
2019-06-08T03:13:52.166Z,962.78
2019-06-08T03:14:52.165Z,962.89
2019-06-08T03:15:52.197Z,962.83
2019-06-08T03:16:52.125Z,962.87
2019-06-08T03:17:52.150Z,962.83
2019-06-08T03:18:52.095Z,962.88
2019-06-08T03:19:52.113Z,962.86
2019-06-08T03:20:52.067Z,962.88
2019-06-08T03:21:52.064Z,962.87
2019-06-08T03:22:52.075Z,962.85
2019-06-08T03:23:52.074Z,962.89
2019-06-08T03:24:52.042Z,962.95
2019-06-08T03:25:53.436Z,962.98
2019-06-08T03:26:52.006Z,963.00
2019-06-08T03:27:52.012Z,962.93
2019-06-08T03:28:52.003Z,962.97
2019-06-08T03:29:51.976Z,962.96
2019-06-08T03:30:54.384Z,963.02
2019-06-08T03:31:56.313Z,963.00
2019-06-08T03:32:56.269Z,963.00
2019-06-08T03:33:55.854Z,962.92
2019-06-08T03:34:56.434Z,963.09
2019-06-08T03:35:57.881Z,963.05
2019-06-08T03:36:56.742Z,963.11
2019-06-08T03:37:51.874Z,963.17
2019-06-08T03:38:51.886Z,963.15
2019-06-08T03:39:51.862Z,963.13
2019-06-08T03:40:51.855Z,963.18
2019-06-08T03:41:51.844Z,963.16
2019-06-08T03:42:53.342Z,963.16
2019-06-08T03:43:51.839Z,963.17
2019-06-08T03:44:51.823Z,963.24
2019-06-08T03:45:51.794Z,963.19
2019-06-08T03:46:51.775Z,963.21
2019-06-08T03:47:51.768Z,963.25
2019-06-08T03:48:51.794Z,963.20
2019-06-08T03:49:57.131Z,963.22
2019-06-08T03:50:52.769Z,963.27
2019-06-08T03:51:51.725Z,963.23
2019-06-08T03:52:51.716Z,963.27
2019-06-08T03:53:51.747Z,963.22
2019-06-08T03:54:51.705Z,963.29
2019-06-08T03:55:51.702Z,963.32
2019-06-08T03:56:51.671Z,963.30
2019-06-08T03:57:51.654Z,963.29
2019-06-08T03:58:51.678Z,963.36
2019-06-08T03:59:51.656Z,963.33
2019-06-08T04:00:51.635Z,963.38
2019-06-08T04:01:51.615Z,963.35
2019-06-08T04:02:51.602Z,963.42
2019-06-08T04:03:51.585Z,963.35
2019-06-08T04:04:51.614Z,963.42
2019-06-08T04:05:51.591Z,963.31
2019-06-08T04:06:51.560Z,963.39
2019-06-08T04:07:51.540Z,963.49
2019-06-08T04:08:51.545Z,963.56
2019-06-08T04:09:51.551Z,963.52
2019-06-08T04:10:51.528Z,963.52
2019-06-08T04:11:51.563Z,963.59
2019-06-08T04:12:51.541Z,963.55
2019-06-08T04:13:51.492Z,963.52
2019-06-08T04:14:51.565Z,963.56
2019-06-08T04:15:51.455Z,963.56
2019-06-08T04:16:51.436Z,963.61
2019-06-08T04:17:51.448Z,963.62
2019-06-08T04:18:51.416Z,963.57
2019-06-08T04:20:09.713Z,963.62
2019-06-08T04:20:52.425Z,963.63
2019-06-08T04:21:51.421Z,963.64
2019-06-08T04:22:51.376Z,963.65
2019-06-08T04:23:51.376Z,963.64
2019-06-08T04:24:51.383Z,963.64
2019-06-08T04:25:51.377Z,963.72
2019-06-08T04:26:51.334Z,963.67
2019-06-08T04:27:51.335Z,963.73
2019-06-08T04:28:51.305Z,963.73
2019-06-08T04:29:51.339Z,963.77
2019-06-08T04:30:51.339Z,963.75
2019-06-08T04:31:51.294Z,963.70
2019-06-08T04:32:51.313Z,963.73
2019-06-08T04:33:51.265Z,963.73
2019-06-08T04:34:51.275Z,963.73
2019-06-08T04:35:51.255Z,963.76
2019-06-08T04:36:51.236Z,963.79
2019-06-08T04:37:51.226Z,963.76
2019-06-08T04:38:51.247Z,963.70
2019-06-08T04:39:51.215Z,963.73
2019-06-08T04:40:51.178Z,963.77
2019-06-08T04:41:51.177Z,963.74
2019-06-08T04:42:51.228Z,963.80
2019-06-08T04:43:51.155Z,963.85
2019-06-08T04:44:51.145Z,963.76
2019-06-08T04:45:51.116Z,963.82
2019-06-08T04:46:51.144Z,963.80
2019-06-08T04:47:51.106Z,963.81
2019-06-08T04:48:51.105Z,963.87
2019-06-08T04:49:51.119Z,963.87
2019-06-08T04:50:51.087Z,963.78
2019-06-08T04:51:51.099Z,963.86
2019-06-08T04:52:51.054Z,963.94
2019-06-08T04:53:51.051Z,963.94
2019-06-08T04:54:51.026Z,963.95
2019-06-08T04:55:51.084Z,964.00
2019-06-08T04:56:51.006Z,964.04
2019-06-08T04:57:51.085Z,963.98
2019-06-08T04:58:51.498Z,964.12
2019-06-08T04:59:50.983Z,964.13
2019-06-08T05:00:51.160Z,964.16
2019-06-08T05:01:50.936Z,964.18
2019-06-08T05:02:51.339Z,964.14
2019-06-08T05:03:50.947Z,964.13
2019-06-08T05:04:50.979Z,964.17
2019-06-08T05:05:50.910Z,964.22
2019-06-08T05:06:50.896Z,964.28
2019-06-08T05:07:50.890Z,964.24
2019-06-08T05:08:50.887Z,964.31
2019-06-08T05:09:50.878Z,964.30
2019-06-08T05:10:50.877Z,964.29
2019-06-08T05:11:50.830Z,964.27
2019-06-08T05:12:50.816Z,964.31
2019-06-08T05:13:50.813Z,964.36
2019-06-08T05:14:50.799Z,964.35
2019-06-08T05:15:50.809Z,964.32
2019-06-08T05:16:50.789Z,964.33
2019-06-08T05:17:50.769Z,964.37
2019-06-08T05:18:50.773Z,964.35
2019-06-08T05:19:50.747Z,964.33
2019-06-08T05:20:51.769Z,964.38
2019-06-08T05:21:50.729Z,964.41
2019-06-08T05:22:50.697Z,964.39
2019-06-08T05:23:58.208Z,964.44
2019-06-08T05:24:51.703Z,964.42
2019-06-08T05:25:50.735Z,964.45
2019-06-08T05:26:50.776Z,964.47
2019-06-08T05:27:50.667Z,964.43
2019-06-08T05:28:50.709Z,964.42
2019-06-08T05:29:50.643Z,964.53
2019-06-08T05:30:50.649Z,964.52
2019-06-08T05:31:50.606Z,964.57
2019-06-08T05:32:50.607Z,964.53
2019-06-08T05:33:50.586Z,964.62
2019-06-08T05:34:50.573Z,964.72
2019-06-08T05:35:50.630Z,964.69
2019-06-08T05:36:50.558Z,964.67
2019-06-08T05:37:50.576Z,964.64
2019-06-08T05:38:50.535Z,964.72
2019-06-08T05:39:50.526Z,964.64
2019-06-08T05:40:50.515Z,964.71
2019-06-08T05:41:50.518Z,964.63
2019-06-08T05:42:50.483Z,964.65
2019-06-08T05:43:50.466Z,964.66
2019-06-08T05:44:50.476Z,964.67
2019-06-08T05:45:50.455Z,964.76
2019-06-08T05:46:50.463Z,964.71
2019-06-08T05:47:50.427Z,964.74
2019-06-08T05:48:50.554Z,964.68
2019-06-08T05:49:50.407Z,964.77
2019-06-08T05:51:02.743Z,964.79
2019-06-08T05:51:51.403Z,964.78
2019-06-08T05:52:50.451Z,964.79
2019-06-08T05:53:50.366Z,964.81
2019-06-08T05:54:50.356Z,964.87
2019-06-08T05:55:50.347Z,964.90
2019-06-08T05:56:50.560Z,964.91
2019-06-08T05:57:50.590Z,964.94
2019-06-08T05:58:50.514Z,964.88
2019-06-08T05:59:50.482Z,964.93
2019-06-08T06:00:50.634Z,964.98
2019-06-08T06:01:50.977Z,964.96
2019-06-08T06:02:58.015Z,965.02
2019-06-08T06:03:58.036Z,965.01
2019-06-08T06:04:52.175Z,965.09
2019-06-08T06:05:50.772Z,965.06
2019-06-08T06:06:50.924Z,965.07
2019-06-08T06:07:51.238Z,965.08
2019-06-08T06:08:50.975Z,965.05
2019-06-08T06:09:51.129Z,965.12
2019-06-08T06:10:51.359Z,965.16
2019-06-08T06:11:51.181Z,965.13
2019-06-08T06:12:51.178Z,965.13
2019-06-08T06:13:51.337Z,965.21
2019-06-08T06:14:51.250Z,965.19
2019-06-08T06:15:51.709Z,965.22
2019-06-08T06:16:51.212Z,965.24
2019-06-08T06:17:51.428Z,965.27
2019-06-08T06:18:52.218Z,965.26
2019-06-08T06:19:51.392Z,965.30
2019-06-08T06:20:51.408Z,965.28
2019-06-08T06:21:51.401Z,965.34
2019-06-08T06:22:52.469Z,965.34
2019-06-08T06:23:51.403Z,965.33
2019-06-08T06:24:50.046Z,965.36
2019-06-08T06:25:50.118Z,965.32
2019-06-08T06:26:50.465Z,965.34
2019-06-08T06:27:50.029Z,965.40
2019-06-08T06:28:50.036Z,965.37
2019-06-08T06:29:50.024Z,965.40
2019-06-08T06:30:50.246Z,965.38
2019-06-08T06:31:50.097Z,965.37
2019-06-08T06:32:50.255Z,965.44
2019-06-08T06:33:50.133Z,965.43
2019-06-08T06:34:50.030Z,965.39
2019-06-08T06:35:50.047Z,965.45
2019-06-08T06:36:49.968Z,965.46
2019-06-08T06:37:52.031Z,965.46
2019-06-08T06:38:50.175Z,965.46
2019-06-08T06:39:50.140Z,965.52
2019-06-08T06:40:50.093Z,965.52
2019-06-08T06:41:49.997Z,965.50
2019-06-08T06:42:50.079Z,965.48
2019-06-08T06:43:50.396Z,965.54
2019-06-08T06:44:50.586Z,965.57
2019-06-08T06:45:50.008Z,965.56
2019-06-08T06:46:50.207Z,965.53
2019-06-08T06:47:50.444Z,965.52
2019-06-08T06:48:50.380Z,965.46
2019-06-08T06:49:50.645Z,965.41
2019-06-08T06:50:50.417Z,965.47
2019-06-08T06:51:50.536Z,965.48
2019-06-08T06:52:50.777Z,965.49
2019-06-08T06:53:50.858Z,965.52
2019-06-08T06:54:51.139Z,965.54
2019-06-08T06:55:50.977Z,965.56
2019-06-08T06:56:49.666Z,965.58
2019-06-08T06:57:49.675Z,965.60
2019-06-08T06:58:49.637Z,965.59
2019-06-08T06:59:49.619Z,965.61
2019-06-08T07:00:49.617Z,965.65
2019-06-08T07:01:53.643Z,965.71
2019-06-08T07:02:51.732Z,965.68
2019-06-08T07:03:50.143Z,965.70
2019-06-08T07:04:49.960Z,965.75
2019-06-08T07:05:49.985Z,965.71
2019-06-08T07:06:50.128Z,965.70
2019-06-08T07:07:50.237Z,965.72
2019-06-08T07:08:50.324Z,965.70
2019-06-08T07:09:50.496Z,965.72
2019-06-08T07:10:50.800Z,965.69
2019-06-08T07:11:50.876Z,965.69
2019-06-08T07:12:50.823Z,965.71
2019-06-08T07:13:50.800Z,965.71
2019-06-08T07:14:49.476Z,965.70
2019-06-08T07:15:53.726Z,965.69
2019-06-08T07:16:50.446Z,965.78
2019-06-08T07:17:50.107Z,965.75
2019-06-08T07:18:50.238Z,965.75
2019-06-08T07:19:50.430Z,965.77
2019-06-08T07:20:50.253Z,965.73
2019-06-08T07:21:50.306Z,965.77
2019-06-08T07:22:50.220Z,965.74
2019-06-08T07:23:50.855Z,965.72
2019-06-08T07:24:50.287Z,965.72
2019-06-08T07:25:50.442Z,965.76
2019-06-08T07:26:50.432Z,965.77
2019-06-08T07:27:50.497Z,965.80
2019-06-08T07:28:49.907Z,965.84
2019-06-08T07:29:50.510Z,965.85
2019-06-08T07:30:50.633Z,965.88
2019-06-08T07:31:50.334Z,965.86
2019-06-08T07:32:49.287Z,965.84
2019-06-08T07:33:51.510Z,965.87
2019-06-08T07:34:50.439Z,965.83
2019-06-08T07:35:49.977Z,965.87
2019-06-08T07:36:49.765Z,965.83
2019-06-08T07:37:50.575Z,965.87
2019-06-08T07:38:49.983Z,965.85
2019-06-08T07:39:50.041Z,965.91
2019-06-08T07:40:49.949Z,965.88
2019-06-08T07:41:50.217Z,965.91
2019-06-08T07:42:49.707Z,965.87
2019-06-08T07:43:49.661Z,965.83
2019-06-08T07:44:49.178Z,965.94
2019-06-08T07:45:49.858Z,965.93
2019-06-08T07:46:49.564Z,966.01
2019-06-08T07:47:49.935Z,965.95
2019-06-08T07:48:50.285Z,965.98
2019-06-08T07:49:49.338Z,965.95
2019-06-08T07:50:50.252Z,965.99
2019-06-08T07:51:58.681Z,965.97
2019-06-08T07:52:51.318Z,965.97
2019-06-08T07:53:49.853Z,965.96
2019-06-08T07:54:49.732Z,965.87
2019-06-08T07:55:50.091Z,965.90
2019-06-08T07:56:50.076Z,965.92
2019-06-08T07:57:50.444Z,965.90
2019-06-08T07:58:50.130Z,965.92
2019-06-08T07:59:50.252Z,965.92
2019-06-08T08:00:50.421Z,965.89
2019-06-08T08:01:49.866Z,965.91
2019-06-08T08:02:50.109Z,965.88
2019-06-08T08:03:49.920Z,965.88
2019-06-08T08:04:50.134Z,965.85
2019-06-08T08:05:50.280Z,965.88
2019-06-08T08:06:50.312Z,965.88
2019-06-08T08:07:50.202Z,965.89
2019-06-08T08:08:48.851Z,965.85
2019-06-08T08:09:48.880Z,965.96
2019-06-08T08:10:48.901Z,965.97
2019-06-08T08:11:48.837Z,965.95
2019-06-08T08:12:49.235Z,965.99
2019-06-08T08:13:50.162Z,965.98
2019-06-08T08:14:48.818Z,965.94
2019-06-08T08:15:49.061Z,965.97
2019-06-08T08:16:48.940Z,966.01
2019-06-08T08:17:49.080Z,966.10
2019-06-08T08:18:49.054Z,966.11
2019-06-08T08:19:48.996Z,965.98
2019-06-08T08:20:49.474Z,965.99
2019-06-08T08:21:51.896Z,966.02
2019-06-08T08:22:52.618Z,966.00
2019-06-08T08:23:50.636Z,965.97
2019-06-08T08:24:53.413Z,966.01
2019-06-08T08:25:50.447Z,966.01
2019-06-08T08:26:50.852Z,965.90
2019-06-08T08:27:50.238Z,965.89
2019-06-08T08:28:50.395Z,965.97
2019-06-08T08:29:48.984Z,965.98
2019-06-08T08:30:50.569Z,966.03
2019-06-08T08:31:50.275Z,965.99
2019-06-08T08:32:50.790Z,965.98
2019-06-08T08:33:50.083Z,966.07
2019-06-08T08:34:50.345Z,966.01
2019-06-08T08:35:50.576Z,966.09
2019-06-08T08:36:50.585Z,966.05
2019-06-08T08:37:53.634Z,966.04
2019-06-08T08:38:51.551Z,966.10
2019-06-08T08:39:50.118Z,966.12
2019-06-08T08:40:50.095Z,966.07
2019-06-08T08:41:53.623Z,966.13
2019-06-08T08:42:50.617Z,966.10
2019-06-08T08:43:51.308Z,966.09
2019-06-08T08:44:49.820Z,966.05
2019-06-08T08:45:49.693Z,966.11
2019-06-08T08:46:50.066Z,966.11
2019-06-08T08:47:48.587Z,966.07
2019-06-08T08:48:48.676Z,966.11
2019-06-08T08:49:48.408Z,966.12
2019-06-08T08:50:48.461Z,966.20
2019-06-08T08:51:48.391Z,966.22
2019-06-08T08:52:48.373Z,966.21
2019-06-08T08:53:53.851Z,966.21
2019-06-08T08:54:50.755Z,966.20
2019-06-08T08:55:48.381Z,966.16
2019-06-08T08:56:52.197Z,966.19
2019-06-08T08:57:50.716Z,966.17
2019-06-08T08:58:48.334Z,966.21
2019-06-08T08:59:51.818Z,966.20
2019-06-08T09:00:50.930Z,966.18
2019-06-08T09:01:48.388Z,966.17
2019-06-08T09:02:50.196Z,966.24
2019-06-08T09:03:51.854Z,966.27
2019-06-08T09:04:50.623Z,966.33
2019-06-08T09:05:48.422Z,966.32
2019-06-08T09:06:48.419Z,966.31
2019-06-08T09:07:48.393Z,966.31
2019-06-08T09:08:48.500Z,966.24
2019-06-08T09:09:48.349Z,966.26
2019-06-08T09:10:48.207Z,966.21
2019-06-08T09:11:48.549Z,966.30
2019-06-08T09:12:48.656Z,966.27
2019-06-08T09:13:48.803Z,966.28
2019-06-08T09:14:48.315Z,966.26
2019-06-08T09:15:48.218Z,966.32
2019-06-08T09:16:48.283Z,966.30
2019-06-08T09:17:48.359Z,966.27
2019-06-08T09:18:48.109Z,966.27
2019-06-08T09:19:48.228Z,966.27
2019-06-08T09:20:48.076Z,966.22
2019-06-08T09:21:48.276Z,966.34
2019-06-08T09:22:56.560Z,966.27
2019-06-08T09:23:49.022Z,966.32
2019-06-08T09:24:48.586Z,966.26
2019-06-08T09:25:48.464Z,966.35
2019-06-08T09:26:48.017Z,966.37
2019-06-08T09:27:48.411Z,966.35
2019-06-08T09:28:47.988Z,966.30
2019-06-08T09:29:48.300Z,966.29
2019-06-08T09:30:48.390Z,966.39
2019-06-08T09:31:49.091Z,966.39
2019-06-08T09:32:48.031Z,966.34
2019-06-08T09:33:55.158Z,966.36
2019-06-08T09:34:48.919Z,966.45
2019-06-08T09:35:48.106Z,966.36
2019-06-08T09:36:48.285Z,966.43
2019-06-08T09:37:48.611Z,966.48
2019-06-08T09:38:48.006Z,966.48
2019-06-08T09:39:48.339Z,966.38
2019-06-08T09:40:48.919Z,966.40
2019-06-08T09:41:48.083Z,966.42
2019-06-08T09:42:47.827Z,966.41
2019-06-08T09:43:48.699Z,966.47
2019-06-08T09:44:48.383Z,966.50
2019-06-08T09:45:48.416Z,966.46
2019-06-08T09:46:48.173Z,966.53
2019-06-08T09:47:47.949Z,966.53
2019-06-08T09:48:48.664Z,966.54
2019-06-08T09:49:48.091Z,966.58
2019-06-08T09:50:48.668Z,966.48
2019-06-08T09:51:48.627Z,966.53
2019-06-08T09:52:48.001Z,966.56
2019-06-08T09:53:47.779Z,966.47
2019-06-08T09:54:48.143Z,966.56
2019-06-08T09:55:48.288Z,966.56
2019-06-08T09:56:47.936Z,966.49
2019-06-08T09:57:48.500Z,966.49
2019-06-08T09:58:48.813Z,966.48
2019-06-08T09:59:48.265Z,966.44
2019-06-08T10:00:48.641Z,966.42
2019-06-08T10:01:47.623Z,966.51
2019-06-08T10:02:47.931Z,966.40
2019-06-08T10:03:48.213Z,966.49
2019-06-08T10:04:48.412Z,966.43
2019-06-08T10:05:48.390Z,966.46
2019-06-08T10:06:48.050Z,966.41
2019-06-08T10:07:48.753Z,966.49
2019-06-08T10:08:48.074Z,966.46
2019-06-08T10:09:49.998Z,966.43
2019-06-08T10:10:48.372Z,966.44
2019-06-08T10:11:47.518Z,966.49
2019-06-08T10:12:48.433Z,966.46
2019-06-08T10:13:47.919Z,966.43
2019-06-08T10:14:49.010Z,966.44
2019-06-08T10:15:51.161Z,966.42
2019-06-08T10:16:47.848Z,966.46
2019-06-08T10:17:47.731Z,966.49
2019-06-08T10:18:51.109Z,966.53
2019-06-08T10:19:47.719Z,966.43
2019-06-08T10:20:48.191Z,966.42
2019-06-08T10:21:48.184Z,966.38
2019-06-08T10:22:50.016Z,966.40
2019-06-08T10:23:48.376Z,966.40
2019-06-08T10:24:49.001Z,966.45
2019-06-08T10:25:48.149Z,966.48
2019-06-08T10:26:47.875Z,966.42
2019-06-08T10:27:47.333Z,966.47
2019-06-08T10:28:48.244Z,966.41
2019-06-08T10:29:48.363Z,966.45
2019-06-08T10:30:48.520Z,966.48
2019-06-08T10:31:48.348Z,966.50
2019-06-08T10:32:47.983Z,966.54
2019-06-08T10:33:48.202Z,966.48
2019-06-08T10:34:48.090Z,966.58
2019-06-08T10:35:48.023Z,966.55
2019-06-08T10:36:47.250Z,966.50
2019-06-08T10:37:47.866Z,966.52
2019-06-08T10:38:47.969Z,966.55
2019-06-08T10:39:47.848Z,966.55
2019-06-08T10:40:48.243Z,966.51
2019-06-08T10:41:48.868Z,966.48
2019-06-08T10:42:48.296Z,966.44
2019-06-08T10:43:48.179Z,966.43
2019-06-08T10:44:47.126Z,966.50
2019-06-08T10:45:48.280Z,966.46
2019-06-08T10:46:48.248Z,966.49
2019-06-08T10:47:47.911Z,966.56
2019-06-08T10:48:48.652Z,966.52
2019-06-08T10:49:48.941Z,966.53
2019-06-08T10:50:47.489Z,966.49
2019-06-08T10:51:48.737Z,966.54
2019-06-08T10:52:47.050Z,966.55
2019-06-08T10:53:52.601Z,966.46
2019-06-08T10:54:48.015Z,966.46
2019-06-08T10:55:48.199Z,966.45
2019-06-08T10:56:48.597Z,966.45
2019-06-08T10:57:47.766Z,966.52
2019-06-08T10:58:49.428Z,966.51
2019-06-08T10:59:48.621Z,966.46
2019-06-08T11:00:48.111Z,966.51
2019-06-08T11:01:46.960Z,966.57
2019-06-08T11:02:48.877Z,966.50
2019-06-08T11:03:48.942Z,966.49
2019-06-08T11:04:48.381Z,966.42
2019-06-08T11:05:48.299Z,966.45
2019-06-08T11:06:47.846Z,966.53
2019-06-08T11:07:48.010Z,966.50
2019-06-08T11:08:46.856Z,966.45
2019-06-08T11:09:48.153Z,966.43
2019-06-08T11:10:47.493Z,966.40
2019-06-08T11:11:48.069Z,966.44
2019-06-08T11:12:48.538Z,966.39
2019-06-08T11:13:50.101Z,966.48
2019-06-08T11:14:48.137Z,966.42
2019-06-08T11:15:48.093Z,966.42
2019-06-08T11:16:47.579Z,966.50
2019-06-08T11:17:46.774Z,966.44
2019-06-08T11:18:50.830Z,966.49
2019-06-08T11:19:48.016Z,966.44
2019-06-08T11:20:47.901Z,966.39
2019-06-08T11:21:48.214Z,966.36
2019-06-08T11:22:49.872Z,966.40
2019-06-08T11:24:04.493Z,966.39
2019-06-08T11:24:48.543Z,966.42
2019-06-08T11:25:48.790Z,966.37
2019-06-08T11:26:47.843Z,966.35
2019-06-08T11:27:47.524Z,966.35
2019-06-08T11:29:38.328Z,966.32
2019-06-08T11:30:38.279Z,966.26
2019-06-08T11:31:39.028Z,966.22
2019-06-08T11:32:38.350Z,966.28
2019-06-08T11:33:38.778Z,966.22
2019-06-08T11:34:37.717Z,966.26
2019-06-08T11:35:38.370Z,966.23
2019-06-08T11:36:39.070Z,966.27
2019-06-08T11:37:38.752Z,966.28
2019-06-08T11:38:38.238Z,966.28
2019-06-08T11:39:38.182Z,966.29
2019-06-08T11:40:37.888Z,966.25
2019-06-08T11:41:36.284Z,966.20
2019-06-08T11:42:38.643Z,966.27
2019-06-08T11:43:38.111Z,966.22
2019-06-08T11:44:38.770Z,966.15
2019-06-08T11:45:37.961Z,966.25
2019-06-08T11:46:38.376Z,966.15
2019-06-08T11:47:38.931Z,966.12
2019-06-08T11:48:39.287Z,966.14
2019-06-08T11:49:37.214Z,966.11
2019-06-08T11:50:41.454Z,966.19
2019-06-08T11:51:37.840Z,966.11
2019-06-08T11:52:38.255Z,966.11
2019-06-08T11:53:38.477Z,966.11
2019-06-08T11:54:38.031Z,966.10
2019-06-08T11:55:38.358Z,966.11
2019-06-08T11:56:39.976Z,966.06
2019-06-08T11:57:37.393Z,966.10
2019-06-08T11:58:38.162Z,966.03
2019-06-08T11:59:37.540Z,966.14
2019-06-08T12:00:37.895Z,966.11
2019-06-08T12:01:36.064Z,966.05
2019-06-08T12:02:38.783Z,966.00
2019-06-08T12:03:38.754Z,965.98
2019-06-08T12:04:38.263Z,966.05
2019-06-08T12:05:36.054Z,966.04
2019-06-08T12:06:37.737Z,966.12
2019-06-08T12:07:38.072Z,966.13
2019-06-08T12:08:38.030Z,966.13
2019-06-08T12:09:36.017Z,966.12
2019-06-08T12:10:38.205Z,966.18
2019-06-08T12:11:38.287Z,966.16
2019-06-08T12:12:38.344Z,966.20
2019-06-08T12:13:35.966Z,966.17
2019-06-08T12:14:37.651Z,966.17
2019-06-08T12:15:38.452Z,966.14
2019-06-08T12:16:37.828Z,966.07
2019-06-08T12:17:35.928Z,966.18
2019-06-08T12:18:40.045Z,966.09
2019-06-08T12:19:37.751Z,966.08
2019-06-08T12:20:37.689Z,966.17
2019-06-08T12:21:35.867Z,966.05
2019-06-08T12:22:37.670Z,966.06
2019-06-08T12:23:35.827Z,966.04
2019-06-08T12:24:41.981Z,966.02
2019-06-08T12:25:37.847Z,966.03
2019-06-08T12:26:35.855Z,966.00
2019-06-08T12:27:37.264Z,966.03
2019-06-08T12:28:38.056Z,965.98
2019-06-08T12:29:35.767Z,965.97